createdAt,value
2018-09-09T00:00:08.301Z,33.57
2018-09-09T00:01:08.276Z,33.76
2018-09-09T00:02:08.232Z,33.47
2018-09-09T00:03:08.204Z,33.76
2018-09-09T00:04:08.176Z,33.67
2018-09-09T00:05:08.170Z,33.67
2018-09-09T00:06:08.131Z,33.57
2018-09-09T00:07:08.306Z,33.47
2018-09-09T00:08:08.051Z,33.47
2018-09-09T00:09:08.039Z,33.57
2018-09-09T00:10:07.995Z,33.57
2018-09-09T00:11:07.997Z,33.67
2018-09-09T00:12:08.251Z,33.47
2018-09-09T00:13:07.924Z,33.47
2018-09-09T00:14:08.078Z,33.57
2018-09-09T00:15:07.846Z,33.86
2018-09-09T00:30:15.349Z,33.76
2018-09-09T00:31:15.132Z,34.05
2018-09-09T00:32:15.090Z,34.13
2018-09-09T00:33:15.093Z,34.33
2018-09-09T00:34:15.212Z,34.71
2018-09-09T00:35:14.973Z,34.42
2018-09-09T00:36:15.098Z,33.94
2018-09-09T00:37:14.914Z,34.33
2018-09-09T00:38:16.088Z,34.21
2018-09-09T00:39:14.848Z,34.70
2018-09-09T00:40:14.815Z,35.28
2018-09-09T00:41:14.789Z,35.95
2018-09-09T00:42:15.104Z,36.44
2018-09-09T00:43:14.700Z,36.44
2018-09-09T00:44:14.679Z,35.76
2018-09-09T00:45:14.641Z,36.15
2018-09-09T00:46:14.606Z,36.52
2018-09-09T00:47:14.574Z,36.61
2018-09-09T00:48:14.554Z,36.03
2018-09-09T00:49:14.525Z,35.84
2018-09-09T00:50:14.483Z,35.64
2018-09-09T00:51:14.460Z,35.64
2018-09-09T00:52:14.415Z,35.06
2018-09-09T00:53:14.379Z,35.06
2018-09-09T00:54:14.354Z,34.87
2018-09-09T00:55:14.329Z,34.29
2018-09-09T00:56:14.300Z,34.48
2018-09-09T00:57:14.282Z,34.31
2018-09-09T00:58:14.226Z,34.12
2018-09-09T00:59:14.196Z,34.00
2018-09-09T01:00:14.159Z,34.20
2018-09-09T01:01:14.148Z,34.29
2018-09-09T01:02:14.088Z,34.48
2018-09-09T01:03:14.073Z,35.16
2018-09-09T01:04:14.025Z,35.45
2018-09-09T01:05:14.008Z,35.94
2018-09-09T01:06:13.978Z,36.22
2018-09-09T01:07:13.951Z,36.90
2018-09-09T01:08:13.926Z,37.38
2018-09-09T01:09:14.123Z,37.96
2018-09-09T01:10:13.832Z,38.64
2018-09-09T01:11:13.804Z,38.74
2018-09-09T01:12:13.787Z,39.87
2018-09-09T01:13:13.810Z,39.69
2018-09-09T01:14:13.711Z,39.59
2018-09-09T01:16:13.642Z,40.45
2018-09-09T01:17:13.839Z,40.26
2018-09-09T01:18:13.581Z,40.45
2018-09-09T01:19:13.543Z,40.92
2018-09-09T01:20:13.555Z,41.02
2018-09-09T01:21:13.645Z,40.44
2018-09-09T01:22:13.452Z,40.24
2018-09-09T01:23:13.423Z,39.76
2018-09-09T01:24:13.405Z,40.15
2018-09-09T01:25:13.371Z,39.86
2018-09-09T01:26:13.337Z,39.76
2018-09-09T01:27:13.302Z,39.57
2018-09-09T01:28:13.266Z,39.76
2018-09-09T01:29:13.468Z,39.86
2018-09-09T01:30:13.189Z,39.66
2018-09-09T01:31:13.176Z,39.57
2018-09-09T01:32:13.133Z,39.76
2018-09-09T01:33:13.120Z,40.24
2018-09-09T01:34:13.070Z,40.53
2018-09-09T01:35:13.070Z,40.63
2018-09-09T01:36:13.098Z,41.19
2018-09-09T01:37:13.140Z,40.51
2018-09-09T01:38:12.936Z,40.22
2018-09-09T01:39:12.947Z,40.03
2018-09-09T01:40:12.912Z,39.84
2018-09-09T01:41:12.860Z,39.74
2018-09-09T01:42:12.841Z,40.32
2018-09-09T01:43:12.926Z,40.32
2018-09-09T01:44:12.777Z,40.42
2018-09-09T01:45:12.737Z,40.51
2018-09-09T01:46:12.684Z,40.51
2018-09-09T01:47:12.651Z,40.03
2018-09-09T01:48:12.617Z,40.51
2018-09-09T01:49:12.595Z,40.32
2018-09-09T01:50:12.565Z,40.22
2018-09-09T01:51:12.535Z,39.64
2018-09-09T01:52:12.500Z,40.32
2018-09-09T01:53:12.466Z,40.03
2018-09-09T01:54:12.598Z,39.74
2018-09-09T01:55:12.411Z,39.82
2018-09-09T01:56:12.373Z,39.74
2018-09-09T01:57:12.334Z,39.84
2018-09-09T01:58:12.303Z,39.53
2018-09-09T01:59:12.295Z,39.45
2018-09-09T02:00:12.269Z,39.45
2018-09-09T02:01:12.204Z,38.78
2018-09-09T02:02:12.180Z,38.76
2018-09-09T02:03:12.135Z,38.87
2018-09-09T02:04:12.136Z,38.39
2018-09-09T02:05:12.101Z,38.58
2018-09-09T02:06:12.041Z,38.37
2018-09-09T02:07:12.043Z,38.46
2018-09-09T02:08:11.982Z,38.49
2018-09-09T02:09:11.987Z,38.37
2018-09-09T02:11:11.883Z,38.18
2018-09-09T02:12:11.871Z,38.01
2018-09-09T02:13:11.827Z,37.91
2018-09-09T02:14:11.815Z,37.70
2018-09-09T02:15:11.753Z,37.98
2018-09-09T02:16:11.732Z,37.89
2018-09-09T02:17:11.701Z,37.60
2018-09-09T02:18:11.790Z,37.71
2018-09-09T02:19:11.625Z,37.62
2018-09-09T02:20:11.586Z,37.98
2018-09-09T02:21:11.860Z,38.37
2018-09-09T02:22:11.549Z,38.97
2018-09-09T02:23:11.527Z,39.91
2018-09-09T02:24:11.496Z,40.01
2018-09-09T02:25:11.457Z,39.82
2018-09-09T02:26:11.654Z,40.28
2018-09-09T02:27:11.376Z,40.95
2018-09-09T02:28:11.374Z,40.95
2018-09-09T02:29:11.302Z,41.05
2018-09-09T02:30:11.326Z,41.14
2018-09-09T02:31:11.291Z,41.24
2018-09-09T02:32:11.243Z,41.34
2018-09-09T02:33:11.211Z,41.63
2018-09-09T02:34:11.191Z,42.30
2018-09-09T02:35:11.099Z,42.69
2018-09-09T02:36:11.077Z,42.49
2018-09-09T02:37:11.062Z,42.59
2018-09-09T02:38:11.032Z,42.79
2018-09-09T02:39:10.970Z,42.76
2018-09-09T02:40:10.977Z,42.88
2018-09-09T02:41:10.954Z,42.67
2018-09-09T02:42:10.906Z,42.88
2018-09-09T02:43:10.875Z,42.69
2018-09-09T02:44:10.900Z,42.97
2018-09-09T02:45:10.832Z,42.49
2018-09-09T02:47:10.710Z,42.30
2018-09-09T02:48:10.716Z,41.82
2018-09-09T02:49:10.694Z,41.92
2018-09-09T02:50:10.648Z,42.11
2018-09-09T02:51:10.595Z,41.72
2018-09-09T02:52:10.753Z,41.82
2018-09-09T02:53:10.535Z,42.30
2018-09-09T02:54:10.485Z,42.69
2018-09-09T02:55:10.487Z,42.49
2018-09-09T02:56:10.416Z,42.88
2018-09-09T02:57:10.429Z,42.49
2018-09-09T02:58:10.370Z,41.82
2018-09-09T02:59:10.374Z,41.53
2018-09-09T03:00:10.346Z,41.34
2018-09-09T03:01:10.286Z,41.53
2018-09-09T03:02:10.231Z,41.63
2018-09-09T03:03:10.208Z,41.63
2018-09-09T03:04:10.164Z,41.72
2018-09-09T03:05:10.153Z,42.02
2018-09-09T03:06:10.092Z,42.02
2018-09-09T03:07:10.066Z,41.72
2018-09-09T03:08:10.025Z,41.71
2018-09-09T03:09:09.992Z,41.44
2018-09-09T03:10:09.974Z,41.05
2018-09-09T03:11:09.928Z,40.94
2018-09-09T03:12:09.924Z,41.05
2018-09-09T03:13:09.900Z,41.51
2018-09-09T03:14:09.829Z,41.72
2018-09-09T03:15:09.801Z,41.89
2018-09-09T03:16:09.770Z,41.41
2018-09-09T03:17:09.768Z,41.82
2018-09-09T03:18:09.796Z,41.99
2018-09-09T03:19:09.667Z,42.19
2018-09-09T03:20:09.635Z,41.92
2018-09-09T03:21:09.604Z,41.99
2018-09-09T03:22:09.584Z,41.89
2018-09-09T03:23:09.537Z,42.09
2018-09-09T03:24:09.870Z,41.99
2018-09-09T03:25:09.484Z,41.51
2018-09-09T03:26:09.440Z,41.71
2018-09-09T03:27:09.448Z,42.09
2018-09-09T03:28:09.373Z,42.09
2018-09-09T03:29:09.340Z,42.09
2018-09-09T03:30:09.323Z,42.57
2018-09-09T03:31:09.286Z,42.67
2018-09-09T03:32:09.247Z,42.67
2018-09-09T03:33:09.215Z,42.57
2018-09-09T03:34:09.191Z,42.47
2018-09-09T03:35:09.140Z,42.47
2018-09-09T03:36:09.111Z,42.47
2018-09-09T03:37:09.077Z,42.76
2018-09-09T03:38:09.049Z,42.96
2018-09-09T03:39:09.018Z,42.96
2018-09-09T03:40:09.152Z,43.15
2018-09-09T03:41:08.957Z,43.15
2018-09-09T03:42:08.950Z,43.32
2018-09-09T03:43:08.884Z,43.51
2018-09-09T03:44:08.862Z,43.99
2018-09-09T03:45:08.821Z,44.09
2018-09-09T03:46:08.928Z,43.51
2018-09-09T03:47:08.750Z,43.13
2018-09-09T03:48:08.714Z,43.41
2018-09-09T03:49:08.693Z,43.99
2018-09-09T03:50:08.664Z,43.51
2018-09-09T03:51:08.617Z,43.13
2018-09-09T03:52:08.582Z,43.51
2018-09-09T03:53:08.554Z,43.23
2018-09-09T03:54:08.575Z,43.32
2018-09-09T03:55:08.488Z,43.41
2018-09-09T03:56:08.453Z,43.23
2018-09-09T03:57:08.414Z,43.23
2018-09-09T03:58:08.378Z,43.41
2018-09-09T03:59:08.354Z,43.03
2018-09-09T04:00:08.317Z,42.93
2018-09-09T04:01:08.304Z,43.13
2018-09-09T04:02:08.249Z,43.32
2018-09-09T04:03:08.221Z,43.03
2018-09-09T04:04:08.196Z,43.71
2018-09-09T04:05:08.150Z,43.61
2018-09-09T04:06:08.135Z,43.61
2018-09-09T04:07:08.086Z,43.51
2018-09-09T04:08:08.262Z,43.80
2018-09-09T04:09:08.026Z,44.38
2018-09-09T04:10:08.043Z,44.19
2018-09-09T04:11:07.951Z,44.09
2018-09-09T04:12:07.923Z,43.61
2018-09-09T04:13:07.883Z,43.32
2018-09-09T04:14:07.952Z,43.80
2018-09-09T04:15:07.830Z,43.99
2018-09-09T04:16:07.801Z,43.51
2018-09-09T04:17:07.753Z,43.90
2018-09-09T04:18:07.717Z,43.99
2018-09-09T04:19:07.704Z,44.19
2018-09-09T04:20:07.665Z,44.19
2018-09-09T04:21:07.625Z,44.28
2018-09-09T04:22:07.588Z,44.38
2018-09-09T04:23:07.555Z,44.28
2018-09-09T04:24:07.520Z,44.19
2018-09-09T04:25:07.741Z,44.09
2018-09-09T04:26:07.452Z,44.19
2018-09-09T04:27:07.424Z,44.19
2018-09-09T04:28:07.395Z,44.57
2018-09-09T04:29:07.359Z,45.15
2018-09-09T04:30:07.324Z,45.44
2018-09-09T04:31:07.293Z,45.42
2018-09-09T04:32:07.258Z,45.42
2018-09-09T04:33:07.226Z,45.51
2018-09-09T04:34:07.190Z,45.90
2018-09-09T04:35:07.162Z,46.47
2018-09-09T04:36:07.130Z,46.77
2018-09-09T04:37:07.090Z,46.45
2018-09-09T04:38:07.059Z,47.15
2018-09-09T04:39:07.028Z,47.22
2018-09-09T04:40:06.990Z,47.22
2018-09-09T04:41:07.214Z,46.84
2018-09-09T04:42:06.927Z,46.93
2018-09-09T04:43:06.894Z,47.22
2018-09-09T04:44:06.864Z,47.31
2018-09-09T04:45:06.822Z,47.89
2018-09-09T04:46:06.787Z,47.80
2018-09-09T04:47:06.909Z,47.80
2018-09-09T04:48:06.734Z,47.22
2018-09-09T04:49:06.694Z,47.31
2018-09-09T04:50:06.655Z,47.70
2018-09-09T04:51:06.621Z,47.70
2018-09-09T04:52:06.589Z,47.70
2018-09-09T04:53:06.564Z,47.80
2018-09-09T04:54:06.535Z,47.99
2018-09-09T04:55:06.504Z,47.80
2018-09-09T04:56:06.478Z,48.08
2018-09-09T04:57:06.427Z,47.77
2018-09-09T04:58:06.540Z,47.89
2018-09-09T04:59:06.356Z,47.31
2018-09-09T05:00:06.333Z,47.68
2018-09-09T05:01:06.299Z,47.87
2018-09-09T05:02:06.261Z,47.58
2018-09-09T05:03:06.226Z,47.58
2018-09-09T05:04:06.185Z,47.77
2018-09-09T05:05:06.165Z,47.89
2018-09-09T05:06:06.124Z,47.99
2018-09-09T05:07:06.088Z,48.07
2018-09-09T05:08:06.075Z,47.87
2018-09-09T05:09:06.123Z,48.16
2018-09-09T05:10:05.985Z,47.58
2018-09-09T05:11:05.991Z,47.97
2018-09-09T05:12:05.928Z,47.87
2018-09-09T05:13:05.890Z,47.87
2018-09-09T05:14:05.859Z,48.45
2018-09-09T05:15:06.125Z,47.87
2018-09-09T05:16:05.784Z,48.16
2018-09-09T05:17:05.752Z,47.97
2018-09-09T05:18:05.729Z,48.64
2018-09-09T05:19:05.684Z,48.35
2018-09-09T05:20:05.652Z,48.54
2018-09-09T05:21:05.625Z,48.64
2018-09-09T05:22:05.639Z,48.45
2018-09-09T05:23:05.550Z,48.54
2018-09-09T05:24:05.518Z,48.35
2018-09-09T05:25:05.484Z,48.54
2018-09-09T05:26:05.704Z,48.74
2018-09-09T05:27:05.414Z,49.12
2018-09-09T05:28:05.380Z,48.74
2018-09-09T05:29:05.350Z,49.31
2018-09-09T05:30:05.313Z,48.83
2018-09-09T05:31:05.287Z,49.41
2018-09-09T05:32:05.261Z,49.12
2018-09-09T05:33:05.220Z,49.41
2018-09-09T05:34:05.178Z,49.77
2018-09-09T05:35:05.144Z,49.87
2018-09-09T05:36:05.112Z,49.67
2018-09-09T05:37:05.287Z,49.87
2018-09-09T05:38:05.046Z,49.87
2018-09-09T05:39:05.012Z,49.67
2018-09-09T05:40:04.975Z,49.77
2018-09-09T05:41:04.950Z,48.90
2018-09-09T05:42:04.910Z,48.81
2018-09-09T05:43:05.072Z,49.19
2018-09-09T05:44:04.842Z,48.61
2018-09-09T05:45:04.811Z,48.54
2018-09-09T05:46:04.773Z,49.00
2018-09-09T05:47:04.741Z,49.22
2018-09-09T05:48:04.706Z,49.00
2018-09-09T05:49:04.722Z,48.90
2018-09-09T05:50:04.639Z,49.19
2018-09-09T05:51:04.602Z,48.81
2018-09-09T05:52:04.575Z,49.19
2018-09-09T05:53:04.543Z,49.69
2018-09-09T05:54:04.500Z,49.29
2018-09-09T05:55:04.466Z,49.22
2018-09-09T05:56:04.437Z,49.19
2018-09-09T05:57:04.404Z,48.52
2018-09-09T05:58:04.366Z,48.61
2018-09-09T05:59:04.330Z,49.02
2018-09-09T06:00:04.305Z,48.61
2018-09-09T06:01:04.271Z,48.43
2018-09-09T06:02:04.234Z,48.35
2018-09-09T06:03:04.195Z,48.54
2018-09-09T06:04:04.164Z,48.54
2018-09-09T06:05:04.129Z,49.00
2018-09-09T06:06:04.113Z,48.52
2018-09-09T06:07:04.069Z,48.71
2018-09-09T06:08:04.036Z,48.81
2018-09-09T06:09:04.222Z,48.81
2018-09-09T06:10:03.964Z,49.87
2018-09-09T06:11:03.926Z,50.05
2018-09-09T06:12:03.900Z,49.67
2018-09-09T06:13:03.862Z,50.34
2018-09-09T06:14:03.828Z,50.73
2018-09-09T06:15:03.788Z,50.92
2018-09-09T06:16:03.758Z,50.61
2018-09-09T06:17:03.723Z,51.50
2018-09-09T06:18:03.689Z,50.99
2018-09-09T06:19:03.657Z,50.99
2018-09-09T06:20:03.625Z,50.99
2018-09-09T06:21:03.601Z,51.37
2018-09-09T06:22:03.556Z,51.76
2018-09-09T06:23:03.516Z,51.57
2018-09-09T06:24:03.486Z,51.57
2018-09-09T06:25:03.452Z,51.59
2018-09-09T06:26:03.512Z,51.79
2018-09-09T06:27:03.384Z,52.55
2018-09-09T06:28:03.356Z,51.50
2018-09-09T06:29:03.316Z,52.08
2018-09-09T06:30:03.290Z,52.26
2018-09-09T06:31:03.250Z,52.08
2018-09-09T06:32:03.218Z,52.17
2018-09-09T06:33:03.262Z,51.98
2018-09-09T06:34:03.148Z,52.34
2018-09-09T06:35:03.112Z,51.88
2018-09-09T06:36:03.080Z,52.24
2018-09-09T06:37:03.188Z,51.57
2018-09-09T06:38:03.009Z,51.67
2018-09-09T06:39:03.012Z,51.67
2018-09-09T06:40:02.940Z,51.76
2018-09-09T06:41:02.907Z,51.86
2018-09-09T06:42:02.869Z,51.76
2018-09-09T06:43:02.941Z,51.67
2018-09-09T06:44:02.803Z,52.14
2018-09-09T06:45:02.778Z,52.08
2018-09-09T06:46:02.731Z,52.17
2018-09-09T06:47:02.698Z,52.46
2018-09-09T06:48:02.664Z,52.17
2018-09-09T06:49:02.639Z,52.55
2018-09-09T06:50:02.594Z,52.81
2018-09-09T06:51:02.571Z,52.53
2018-09-09T06:52:02.589Z,52.81
2018-09-09T06:53:02.500Z,52.91
2018-09-09T06:54:02.615Z,52.72
2018-09-09T06:55:02.458Z,53.01
2018-09-09T06:56:02.389Z,52.81
2018-09-09T06:57:02.367Z,52.91
2018-09-09T06:58:02.323Z,52.81
2018-09-09T06:59:02.291Z,52.72
2018-09-09T07:00:02.252Z,52.91
2018-09-09T07:01:02.221Z,52.62
2018-09-09T07:02:02.191Z,53.39
2018-09-09T07:03:02.150Z,53.20
2018-09-09T07:04:02.120Z,53.01
2018-09-09T07:05:02.285Z,53.20
2018-09-09T07:06:02.049Z,53.30
2018-09-09T07:07:02.157Z,53.58
2018-09-09T07:08:01.981Z,53.30
2018-09-09T07:09:01.948Z,53.49
2018-09-09T07:10:01.933Z,53.30
2018-09-09T07:11:02.198Z,53.39
2018-09-09T07:12:01.909Z,53.30
2018-09-09T07:13:01.810Z,53.58
2018-09-09T07:14:01.780Z,53.49
2018-09-09T07:15:01.751Z,53.39
2018-09-09T07:16:01.712Z,53.58
2018-09-09T07:17:01.680Z,53.58
2018-09-09T07:18:01.640Z,54.06
2018-09-09T07:19:01.658Z,53.78
2018-09-09T07:20:01.571Z,54.06
2018-09-09T07:21:01.540Z,53.97
2018-09-09T07:22:01.502Z,54.13
2018-09-09T07:23:01.472Z,54.64
2018-09-09T07:24:01.437Z,54.33
2018-09-09T07:25:01.400Z,54.52
2018-09-09T07:26:01.361Z,55.10
2018-09-09T07:27:01.330Z,54.90
2018-09-09T07:28:01.294Z,55.19
2018-09-09T07:29:01.264Z,55.10
2018-09-09T07:30:01.226Z,55.19
2018-09-09T07:31:01.193Z,55.29
2018-09-09T07:32:01.159Z,55.19
2018-09-09T07:33:01.327Z,55.29
2018-09-09T07:34:01.158Z,54.90
2018-09-09T07:35:01.059Z,54.80
2018-09-09T07:36:01.021Z,55.00
2018-09-09T07:37:00.989Z,54.71
2018-09-09T07:38:00.949Z,55.10
2018-09-09T07:39:01.118Z,54.90
2018-09-09T07:40:00.890Z,54.71
2018-09-09T07:41:00.850Z,54.80
2018-09-09T07:42:00.814Z,55.10
2018-09-09T07:43:00.777Z,54.71
2018-09-09T07:44:00.754Z,55.10
2018-09-09T07:45:00.717Z,54.90
2018-09-09T07:46:00.675Z,55.00
2018-09-09T07:47:00.683Z,55.29
2018-09-09T07:48:00.624Z,54.61
2018-09-09T07:49:00.581Z,55.00
2018-09-09T07:50:00.787Z,55.00
2018-09-09T07:51:00.503Z,54.90
2018-09-09T07:52:00.466Z,55.00
2018-09-09T07:53:00.433Z,55.38
2018-09-09T07:54:00.400Z,55.47
2018-09-09T07:55:00.371Z,55.47
2018-09-09T07:56:00.332Z,55.10
2018-09-09T07:57:00.301Z,55.10
2018-09-09T07:58:00.260Z,55.57
2018-09-09T07:59:00.237Z,55.86
2018-09-09T08:00:00.205Z,55.38
2018-09-09T08:01:00.173Z,56.05
2018-09-09T08:02:00.131Z,55.96
2018-09-09T08:03:00.090Z,56.15
2018-09-09T08:04:00.066Z,56.44
2018-09-09T08:05:00.022Z,56.22
2018-09-09T08:05:59.987Z,55.83
2018-09-09T08:06:59.955Z,56.51
2018-09-09T08:07:59.923Z,56.22
2018-09-09T08:08:59.884Z,56.70
2018-09-09T08:09:59.847Z,56.41
2018-09-09T08:10:59.817Z,57.08
2018-09-09T08:11:59.821Z,56.89
2018-09-09T08:12:59.745Z,57.24
2018-09-09T08:13:59.725Z,57.63
2018-09-09T08:14:59.681Z,57.34
2018-09-09T08:15:59.646Z,57.43
2018-09-09T08:16:59.622Z,57.43
2018-09-09T08:17:59.570Z,57.82
2018-09-09T08:18:59.540Z,57.53
2018-09-09T08:19:59.502Z,57.72
2018-09-09T08:20:59.469Z,57.92
2018-09-09T08:21:59.641Z,58.01
2018-09-09T08:22:59.398Z,57.92
2018-09-09T08:23:59.371Z,57.82
2018-09-09T08:24:59.340Z,57.92
2018-09-09T08:25:59.294Z,57.72
2018-09-09T08:26:59.272Z,57.92
2018-09-09T08:27:59.229Z,58.30
2018-09-09T08:28:59.195Z,58.87
2018-09-09T08:29:59.156Z,58.39
2018-09-09T08:30:59.120Z,58.49
2018-09-09T08:31:59.088Z,58.78
2018-09-09T08:32:59.250Z,58.87
2018-09-09T08:33:59.015Z,58.20
2018-09-09T08:34:58.984Z,58.49
2018-09-09T08:35:58.982Z,58.49
2018-09-09T08:36:58.913Z,58.49
2018-09-09T08:37:58.887Z,58.97
2018-09-09T08:38:58.840Z,58.59
2018-09-09T08:39:58.809Z,58.69
2018-09-09T08:40:58.771Z,58.49
2018-09-09T08:41:58.736Z,58.94
2018-09-09T08:42:58.702Z,58.65
2018-09-09T08:43:58.665Z,58.84
2018-09-09T08:44:58.633Z,59.04
2018-09-09T08:45:58.599Z,58.59
2018-09-09T08:46:58.561Z,59.16
2018-09-09T08:47:58.532Z,59.36
2018-09-09T08:48:58.493Z,58.78
2018-09-09T08:49:58.462Z,58.30
2018-09-09T08:50:58.421Z,58.59
2018-09-09T08:51:58.517Z,58.49
2018-09-09T08:52:58.354Z,58.49
2018-09-09T08:53:58.324Z,58.39
2018-09-09T08:54:58.281Z,58.69
2018-09-09T08:55:58.249Z,58.39
2018-09-09T08:56:58.216Z,58.59
2018-09-09T08:57:58.185Z,58.78
2018-09-09T08:58:58.141Z,58.59
2018-09-09T08:59:58.309Z,59.16
2018-09-09T09:00:58.071Z,59.26
2018-09-09T09:01:58.037Z,59.16
2018-09-09T09:02:58.002Z,58.94
2018-09-09T09:03:57.971Z,59.13
2018-09-09T09:04:57.932Z,59.13
2018-09-09T09:05:57.999Z,59.13
2018-09-09T09:06:57.866Z,59.61
2018-09-09T09:07:57.921Z,59.33
2018-09-09T09:08:57.793Z,59.52
2018-09-09T09:09:57.761Z,59.71
2018-09-09T09:10:57.725Z,59.80
2018-09-09T09:11:57.688Z,59.33
2018-09-09T09:12:57.652Z,59.52
2018-09-09T09:13:57.618Z,59.26
2018-09-09T09:14:57.585Z,59.42
2018-09-09T09:15:57.546Z,58.97
2018-09-09T09:16:57.816Z,58.97
2018-09-09T09:17:57.477Z,58.78
2018-09-09T09:18:57.440Z,58.69
2018-09-09T09:19:57.413Z,58.87
2018-09-09T09:20:57.374Z,59.55
2018-09-09T09:21:57.338Z,59.36
2018-09-09T09:22:57.299Z,59.45
2018-09-09T09:23:57.267Z,59.64
2018-09-09T09:24:57.230Z,59.26
2018-09-09T09:25:57.195Z,59.36
2018-09-09T09:26:57.161Z,59.55
2018-09-09T09:27:57.483Z,59.36
2018-09-09T09:28:57.091Z,59.26
2018-09-09T09:29:57.056Z,59.26
2018-09-09T09:30:57.023Z,59.64
2018-09-09T09:31:56.983Z,59.83
2018-09-09T09:32:56.950Z,59.93
2018-09-09T09:33:57.015Z,59.64
2018-09-09T09:34:56.881Z,59.93
2018-09-09T09:35:56.845Z,60.50
2018-09-09T09:36:56.833Z,60.99
2018-09-09T09:37:56.776Z,60.99
2018-09-09T09:38:56.743Z,61.21
2018-09-09T09:39:56.705Z,60.63
2018-09-09T09:40:56.680Z,60.25
2018-09-09T09:41:56.648Z,60.53
2018-09-09T09:42:56.604Z,60.44
2018-09-09T09:43:56.573Z,60.53
2018-09-09T09:44:56.681Z,60.92
2018-09-09T09:45:56.574Z,60.57
2018-09-09T09:46:56.483Z,61.21
2018-09-09T09:47:56.433Z,61.40
2018-09-09T09:48:56.411Z,61.52
2018-09-09T09:50:56.325Z,61.14
2018-09-09T09:51:56.285Z,61.33
2018-09-09T09:52:56.253Z,61.14
2018-09-09T09:53:56.214Z,61.33
2018-09-09T09:54:56.238Z,61.52
2018-09-09T09:55:56.245Z,60.75
2018-09-09T09:56:56.110Z,60.98
2018-09-09T09:57:56.078Z,60.69
2018-09-09T09:58:56.042Z,60.60
2018-09-09T09:59:56.010Z,60.40
2018-09-09T10:00:55.971Z,60.40
2018-09-09T10:01:56.134Z,60.50
2018-09-09T10:02:55.947Z,60.31
2018-09-09T10:03:55.867Z,60.31
2018-09-09T10:04:55.835Z,60.50
2018-09-09T10:05:55.807Z,60.50
2018-09-09T10:06:55.769Z,60.31
2018-09-09T10:07:55.728Z,60.50
2018-09-09T10:08:55.768Z,60.72
2018-09-09T10:09:55.661Z,60.63
2018-09-09T10:10:55.634Z,60.91
2018-09-09T10:11:55.597Z,60.72
2018-09-09T10:12:55.730Z,60.34
2018-09-09T10:13:55.535Z,60.82
2018-09-09T10:14:55.512Z,59.86
2018-09-09T10:15:55.460Z,59.76
2018-09-09T10:16:55.426Z,59.60
2018-09-09T10:17:55.389Z,59.79
2018-09-09T10:18:55.353Z,60.08
2018-09-09T10:19:55.323Z,59.50
2018-09-09T10:20:55.289Z,59.69
2018-09-09T10:21:55.257Z,59.69
2018-09-09T10:22:55.221Z,59.60
2018-09-09T10:23:55.257Z,59.89
2018-09-09T10:24:55.160Z,59.63
2018-09-09T10:25:55.119Z,59.53
2018-09-09T10:26:55.093Z,59.53
2018-09-09T10:27:55.070Z,59.72
2018-09-09T10:28:55.024Z,59.66
2018-09-09T10:29:55.003Z,59.37
2018-09-09T10:30:54.951Z,58.79
2018-09-09T10:31:54.916Z,58.79
2018-09-09T10:32:54.929Z,58.50
2018-09-09T10:33:54.851Z,58.79
2018-09-09T10:34:54.827Z,58.98
2018-09-09T10:35:54.788Z,58.79
2018-09-09T10:36:54.751Z,58.22
2018-09-09T10:37:54.717Z,58.44
2018-09-09T10:38:54.687Z,57.86
2018-09-09T10:39:54.650Z,57.67
2018-09-09T10:40:54.628Z,57.57
2018-09-09T10:41:54.592Z,57.09
2018-09-09T10:42:54.557Z,56.51
2018-09-09T10:43:54.529Z,55.74
2018-09-09T10:44:54.497Z,55.48
2018-09-09T10:45:54.485Z,54.22
2018-09-09T10:46:54.502Z,54.42
2018-09-09T10:47:54.391Z,54.32
2018-09-09T10:48:54.354Z,53.55
2018-09-09T10:49:54.326Z,53.00
2018-09-09T10:50:54.287Z,52.04
2018-09-09T10:51:54.259Z,51.56
2018-09-09T10:52:54.222Z,50.69
2018-09-09T10:53:54.199Z,50.59
2018-09-09T10:54:54.360Z,50.11
2018-09-09T10:55:54.124Z,49.91
2018-09-09T10:56:54.093Z,49.55
2018-09-09T10:57:54.066Z,49.17
2018-09-09T10:58:54.128Z,49.07
2018-09-09T10:59:53.994Z,48.49
2018-09-09T11:00:54.059Z,48.30
2018-09-09T11:01:53.939Z,47.63
2018-09-09T11:02:53.900Z,47.07
2018-09-09T11:03:53.866Z,46.97
2018-09-09T11:04:53.837Z,46.78
2018-09-09T11:05:53.801Z,46.11
2018-09-09T11:06:53.834Z,45.92
2018-09-09T11:07:53.742Z,44.85
2018-09-09T11:08:53.714Z,45.24
2018-09-09T11:09:53.671Z,44.29
2018-09-09T11:10:53.639Z,44.29
2018-09-09T11:11:53.605Z,43.81
2018-09-09T11:12:53.624Z,43.62
2018-09-09T11:13:53.547Z,43.24
2018-09-09T11:14:53.514Z,42.75
2018-09-09T11:15:53.479Z,42.94
2018-09-09T11:16:53.455Z,42.48
2018-09-09T11:17:53.419Z,42.58
2018-09-09T11:18:53.441Z,42.58
2018-09-09T11:19:53.414Z,42.19
2018-09-09T11:20:53.323Z,41.42
2018-09-09T11:21:53.445Z,41.91
2018-09-09T11:22:53.258Z,41.61
2018-09-09T11:23:53.225Z,41.03
2018-09-09T11:24:53.195Z,41.03
2018-09-09T11:25:53.205Z,41.25
2018-09-09T11:26:53.200Z,40.96
2018-09-09T11:27:53.428Z,40.96
2018-09-09T11:28:53.070Z,40.28
2018-09-09T11:29:53.091Z,40.28
2018-09-09T11:30:53.023Z,40.28
2018-09-09T11:31:53.055Z,39.18
2018-09-09T11:32:52.963Z,38.06
2018-09-09T11:33:53.076Z,36.18
2018-09-09T11:34:52.892Z,34.25
2018-09-09T11:35:52.856Z,33.31
2018-09-09T11:36:52.866Z,31.79
2018-09-09T11:37:52.786Z,31.34
2018-09-09T11:38:52.755Z,30.47
2018-09-09T11:39:52.724Z,29.42
2018-09-09T11:40:52.696Z,28.77
2018-09-09T11:41:52.681Z,27.90
2018-09-09T11:42:52.633Z,27.52
2018-09-09T11:43:52.612Z,26.56
2018-09-09T11:44:52.774Z,26.38
2018-09-09T11:45:52.547Z,25.89
2018-09-09T11:46:52.596Z,25.32
2018-09-09T11:47:52.488Z,25.33
2018-09-09T11:48:52.478Z,24.84
2018-09-09T11:49:52.433Z,24.46
2018-09-09T11:50:52.398Z,23.87
2018-09-09T11:51:52.371Z,23.59
2018-09-09T11:52:52.371Z,23.79
2018-09-09T11:53:52.319Z,23.11
2018-09-09T11:54:52.288Z,23.21
2018-09-09T11:55:52.259Z,23.11
2018-09-09T11:56:52.231Z,23.02
2018-09-09T11:57:52.205Z,22.63
2018-09-09T11:58:52.176Z,22.83
2018-09-09T11:59:52.149Z,23.02
2018-09-09T12:00:52.124Z,22.73
2018-09-09T12:01:52.147Z,22.55
2018-09-09T12:02:52.129Z,22.25
2018-09-09T12:03:52.055Z,22.25
2018-09-09T12:04:52.018Z,22.16
2018-09-09T12:05:51.993Z,22.16
2018-09-09T12:06:51.964Z,22.06
2018-09-09T12:07:51.934Z,21.86
2018-09-09T12:08:51.911Z,21.87
2018-09-09T12:09:51.906Z,22.55
2018-09-09T12:10:51.931Z,22.06
2018-09-09T12:11:51.840Z,21.97
2018-09-09T12:12:51.819Z,22.16
2018-09-09T12:13:51.797Z,22.06
2018-09-09T12:14:51.785Z,22.06
2018-09-09T12:15:51.745Z,22.06
2018-09-09T12:16:51.717Z,22.16
2018-09-09T12:17:51.706Z,21.96
2018-09-09T12:18:51.679Z,22.16
2018-09-09T12:19:51.643Z,22.14
2018-09-09T12:20:51.622Z,22.63
2018-09-09T12:21:51.790Z,22.73
2018-09-09T12:22:51.565Z,22.14
2018-09-09T12:23:51.567Z,22.63
2018-09-09T12:24:51.601Z,22.83
2018-09-09T12:25:51.550Z,23.11
2018-09-09T12:26:51.668Z,23.11
2018-09-09T12:27:51.637Z,22.52
2018-09-09T12:28:51.432Z,22.91
2018-09-09T12:29:51.405Z,22.71
2018-09-09T12:30:51.502Z,23.19
2018-09-09T12:31:51.467Z,23.38
2018-09-09T12:32:51.709Z,23.68
2018-09-09T12:33:51.366Z,23.66
2018-09-09T12:34:51.306Z,23.57
2018-09-09T12:35:51.285Z,23.86
2018-09-09T12:36:51.280Z,23.75
2018-09-09T12:37:51.310Z,24.33
2018-09-09T12:38:51.392Z,24.43
2018-09-09T12:39:51.210Z,24.43
2018-09-09T12:40:51.288Z,24.32
2018-09-09T12:41:51.146Z,24.32
2018-09-09T12:42:51.150Z,24.52
2018-09-09T12:43:51.111Z,24.62
2018-09-09T12:44:51.338Z,24.71
2018-09-09T12:45:51.072Z,24.32
2018-09-09T12:46:51.066Z,24.61
2018-09-09T12:47:51.038Z,24.79
2018-09-09T12:48:50.997Z,25.37
2018-09-09T12:49:51.244Z,25.37
2018-09-09T12:50:50.978Z,24.89
2018-09-09T12:51:50.947Z,25.27
2018-09-09T12:52:51.156Z,25.08
2018-09-09T12:53:50.914Z,25.26
2018-09-09T12:54:50.863Z,25.27
2018-09-09T12:55:50.847Z,25.16
2018-09-09T12:56:50.829Z,25.07
2018-09-09T12:57:50.814Z,25.65
2018-09-09T12:58:50.815Z,26.23
2018-09-09T12:59:50.770Z,25.35
2018-09-09T13:00:50.745Z,26.23
2018-09-09T13:01:50.726Z,26.72
2018-09-09T13:02:50.695Z,26.21
2018-09-09T13:03:50.686Z,26.70
2018-09-09T13:04:50.648Z,26.21
2018-09-09T13:05:50.778Z,26.80
2018-09-09T13:06:50.620Z,26.61
2018-09-09T13:07:50.602Z,26.61
2018-09-09T13:08:50.576Z,26.50
2018-09-09T13:09:50.540Z,26.79